Sea Thames — V2BV1 — position and weather

sailwx.info

Track history (hours):
 
Tides and Currents Weather Stations Pressure Air Temp Water Temp Dewpoint Dewpoint Depression Visibility Wind Speed Wind Dir Waves Ship Positions

Sea Thames

Last reported at 2017-Jan-15 21:33 UTC. Time now 2017-Jan-16 15:12 UTC.
Position N 51°13' E 004°33'.

Length 87 m; draft 3.2 m.

Type: Cargo ship. MMSI: 304933000.

Date/timePositionNaut miles runAvg speedWind from/ knotsBaromVisibWave heightAir tempDewpointWater temp
2017-Jan-15 21:33N 51°13' E 004°33'1 0.7
2017-Jan-15 20:07N 51°14' E 004°32'2 3.2
2017-Jan-15 19:33N 51°14' E 004°29'3 2.5
2017-Jan-15 18:34N 51°14' E 004°25'0 0.0
2017-Jan-15 17:33N 51°14' E 004°25'1 0.6
2017-Jan-15 16:33N 51°15' E 004°24'20 0.5
2017-Jan-13 23:05N 51°28' E 004°00'0 0.4
2017-Jan-13 22:33N 51°28' E 004°01'1 1.5
2017-Jan-13 21:33N 51°26' E 004°01'7 7.4
2017-Jan-13 20:33N 51°21' E 003°52'7 6.8
2017-Jan-13 19:33N 51°23' E 003°42'6 6.4
2017-Jan-13 18:33N 51°27' E 003°33'7 7.2
2017-Jan-13 17:33N 51°32' E 003°25'7 6.5
2017-Jan-13 16:33N 51°38' E 003°20'89 7.9
2017-Jan-13 05:15N 52°48' E 001°53'6 8.6
2017-Jan-13 04:33N 52°51' E 001°44'7 7.3
2017-Jan-13 03:33N 52°56' E 001°35'6 6.3
2017-Jan-13 02:33N 52°60' E 001°26'6 6.0
2017-Jan-13 01:33N 53°03' E 001°17'  
2017-Jan-10 19:33N 53°35' E 000°03'1211.8
2017-Jan-10 18:33N 53°41' W 000°13'  
2017-Jan-06 22:33N 53°41' W 000°30'9 9.3
2017-Jan-06 21:33N 53°43' W 000°14'1010.2
2017-Jan-06 20:33N 53°36' W 000°01'  
Track history (hours):
 
Tides and Currents Weather Stations Pressure Air Temp Water Temp Dewpoint Dewpoint Depression Visibility Wind Speed Wind Dir Waves Ship Positions

Sea Thames

Last reported at 2017-Jan-15 21:33 UTC. Time now 2017-Jan-16 15:12 UTC.
Position N 51°13' E 004°33'.

Length 87 m; draft 3.2 m.

Type: Cargo ship. MMSI: 304933000.

Date/timePositionNaut miles runAvg speedWind from/ knotsBaromVisibWave heightAir tempDewpointWater temp
2017-Jan-15 21:33N 51°13' E 004°33'1 0.7
2017-Jan-15 20:07N 51°14' E 004°32'2 3.2
2017-Jan-15 19:33N 51°14' E 004°29'3 2.5
2017-Jan-15 18:34N 51°14' E 004°25'0 0.0
2017-Jan-15 17:33N 51°14' E 004°25'1 0.6
2017-Jan-15 16:33N 51°15' E 004°24'20 0.5
2017-Jan-13 23:05N 51°28' E 004°00'0 0.4
2017-Jan-13 22:33N 51°28' E 004°01'1 1.5
2017-Jan-13 21:33N 51°26' E 004°01'7 7.4
2017-Jan-13 20:33N 51°21' E 003°52'7 6.8
2017-Jan-13 19:33N 51°23' E 003°42'6 6.4
2017-Jan-13 18:33N 51°27' E 003°33'7 7.2
2017-Jan-13 17:33N 51°32' E 003°25'7 6.5
2017-Jan-13 16:33N 51°38' E 003°20'89 7.9
2017-Jan-13 05:15N 52°48' E 001°53'6 8.6
2017-Jan-13 04:33N 52°51' E 001°44'7 7.3
2017-Jan-13 03:33N 52°56' E 001°35'6 6.3
2017-Jan-13 02:33N 52°60' E 001°26'6 6.0
2017-Jan-13 01:33N 53°03' E 001°17'  
2017-Jan-10 19:33N 53°35' E 000°03'1211.8
2017-Jan-10 18:33N 53°41' W 000°13'  
2017-Jan-06 22:33N 53°41' W 000°30'9 9.3
2017-Jan-06 21:33N 53°43' W 000°14'1010.2
2017-Jan-06 20:33N 53°36' W 000°01'  

Dump ship's entire track history